createdAt,value
2023-09-28T00:01:39.560Z,23.00
2023-09-28T00:04:08.143Z,23.00
2023-09-28T00:06:36.945Z,23.00
2023-09-28T00:09:06.014Z,23.00
2023-09-28T00:11:34.744Z,23.00
2023-09-28T00:14:03.192Z,23.00
2023-09-28T00:16:30.559Z,23.00
2023-09-28T00:18:59.799Z,23.00
2023-09-28T00:21:27.617Z,23.00
2023-09-28T00:23:56.162Z,23.00
2023-09-28T00:26:23.829Z,23.10
2023-09-28T00:28:53.613Z,23.00
2023-09-28T00:31:21.004Z,23.00
2023-09-28T00:33:49.505Z,23.00
2023-09-28T00:36:16.784Z,23.00
2023-09-28T00:38:48.837Z,23.00
2023-09-28T00:41:17.256Z,23.00
2023-09-28T00:43:46.087Z,23.00
2023-09-28T00:46:17.723Z,23.00
2023-09-28T00:48:55.231Z,23.00
2023-09-28T00:51:25.067Z,23.00
2023-09-28T00:53:52.513Z,23.00
2023-09-28T00:56:22.875Z,23.00
2023-09-28T00:58:53.306Z,23.00
2023-09-28T01:01:22.940Z,23.00
2023-09-28T01:03:50.280Z,23.00
2023-09-28T01:06:18.750Z,23.00
2023-09-28T01:08:46.050Z,23.00
2023-09-28T01:11:14.430Z,23.10
2023-09-28T01:13:41.857Z,23.00
2023-09-28T01:16:10.332Z,23.00
2023-09-28T01:18:39.112Z,23.00
2023-09-28T01:21:07.991Z,23.00
2023-09-28T01:23:36.686Z,23.00
2023-09-28T01:26:05.076Z,23.00
2023-09-28T01:28:32.389Z,23.00
2023-09-28T01:31:00.746Z,23.00
2023-09-28T01:33:28.767Z,23.00
2023-09-28T01:35:57.140Z,23.00
2023-09-28T01:38:35.964Z,23.00
2023-09-28T01:41:05.650Z,23.00
2023-09-28T01:43:32.836Z,23.00
2023-09-28T01:46:01.226Z,23.00
2023-09-28T01:48:28.491Z,23.00
2023-09-28T01:50:56.806Z,23.00
2023-09-28T01:53:24.778Z,23.00
2023-09-28T01:55:53.208Z,23.00
2023-09-28T01:58:23.040Z,23.00
2023-09-28T02:00:50.332Z,23.00
2023-09-28T02:03:18.708Z,23.00
2023-09-28T02:05:45.908Z,23.00
2023-09-28T02:08:14.069Z,23.00
2023-09-28T02:10:41.686Z,23.00
2023-09-28T02:13:10.235Z,23.00
2023-09-28T02:15:38.930Z,23.00
2023-09-28T02:18:07.482Z,23.00
2023-09-28T02:20:35.726Z,23.00
2023-09-28T02:23:04.119Z,23.00
2023-09-28T02:25:31.651Z,23.00
2023-09-28T02:28:00.066Z,23.00
2023-09-28T02:30:27.784Z,23.00
2023-09-28T02:32:57.705Z,23.00
2023-09-28T02:35:25.607Z,23.00
2023-09-28T02:37:55.085Z,23.00
2023-09-28T02:40:22.468Z,23.00
2023-09-28T02:42:50.844Z,23.00
2023-09-28T02:45:18.723Z,23.00
2023-09-28T02:47:48.763Z,23.00
2023-09-28T02:50:19.108Z,23.00
2023-09-28T02:52:49.075Z,23.00
2023-09-28T02:55:20.126Z,23.00
2023-09-28T02:57:48.911Z,23.00
2023-09-28T03:00:20.265Z,23.00
2023-09-28T03:02:48.839Z,23.00
2023-09-28T03:05:18.670Z,23.00
2023-09-28T03:07:47.390Z,23.00
2023-09-28T03:10:14.898Z,23.00
2023-09-28T03:12:46.045Z,23.00
2023-09-28T03:15:13.588Z,23.00
2023-09-28T03:17:43.177Z,23.00
2023-09-28T03:20:15.097Z,23.00
2023-09-28T03:22:45.996Z,23.00
2023-09-28T03:25:17.646Z,23.00
2023-09-28T03:27:47.232Z,23.00
2023-09-28T03:30:15.899Z,23.00
2023-09-28T03:32:44.693Z,23.00
2023-09-28T03:35:12.919Z,23.00
2023-09-28T03:37:42.732Z,23.00
2023-09-28T03:40:13.638Z,23.00
2023-09-28T03:42:43.024Z,23.00
2023-09-28T03:45:12.547Z,23.00
2023-09-28T03:47:41.859Z,23.00
2023-09-28T03:50:12.157Z,23.00
2023-09-28T03:52:41.357Z,23.00
2023-09-28T03:55:13.728Z,23.00
2023-09-28T03:57:43.962Z,23.00
2023-09-28T04:00:15.662Z,23.00
2023-09-28T04:02:47.646Z,23.00
2023-09-28T04:05:18.027Z,23.00
2023-09-28T04:07:47.203Z,23.00
2023-09-28T04:10:17.698Z,23.00
2023-09-28T04:12:46.827Z,23.00
2023-09-28T04:15:15.170Z,23.00
2023-09-28T04:17:45.187Z,23.00
2023-09-28T04:20:14.582Z,23.00
2023-09-28T04:22:42.949Z,23.00
2023-09-28T04:25:13.236Z,23.00
2023-09-28T04:27:43.104Z,23.00
2023-09-28T04:30:12.456Z,23.00
2023-09-28T04:32:40.830Z,22.90
2023-09-28T04:35:12.392Z,22.90
2023-09-28T04:37:41.098Z,23.00
2023-09-28T04:40:12.482Z,23.00
2023-09-28T04:42:42.364Z,23.00
2023-09-28T04:45:11.641Z,22.90
2023-09-28T04:47:40.044Z,23.00
2023-09-28T04:50:09.652Z,23.00
2023-09-28T04:52:38.113Z,23.00
2023-09-28T04:55:08.561Z,22.90
2023-09-28T04:57:36.974Z,23.00
2023-09-28T05:00:09.546Z,22.90
2023-09-28T05:02:40.369Z,23.00
2023-09-28T05:05:12.413Z,22.90
2023-09-28T05:07:41.194Z,23.00
2023-09-28T05:10:10.460Z,22.90
2023-09-28T05:12:38.689Z,23.00
2023-09-28T05:15:10.550Z,23.00
2023-09-28T05:17:39.104Z,23.00
2023-09-28T05:20:09.232Z,23.10
2023-09-28T05:22:37.702Z,23.10
2023-09-28T05:25:06.556Z,23.10
2023-09-28T05:27:34.751Z,23.20
2023-09-28T05:30:04.805Z,23.20
2023-09-28T05:32:34.433Z,23.20
2023-09-28T05:35:04.031Z,23.30
2023-09-28T05:37:32.338Z,23.30
2023-09-28T05:40:01.721Z,23.30
2023-09-28T05:42:29.878Z,23.30
2023-09-28T05:44:58.108Z,23.30
2023-09-28T05:47:26.379Z,23.40
2023-09-28T05:49:56.161Z,23.40
2023-09-28T05:52:24.426Z,23.40
2023-09-28T05:54:54.266Z,23.40
2023-09-28T05:57:23.800Z,23.40
2023-09-28T05:59:52.029Z,23.40
2023-09-28T06:02:23.895Z,23.40
2023-09-28T06:04:52.667Z,23.40
2023-09-28T06:07:24.945Z,23.40
2023-09-28T06:09:53.817Z,23.40
2023-09-28T06:12:22.336Z,23.40
2023-09-28T06:14:50.876Z,23.40
2023-09-28T06:17:19.613Z,23.40
2023-09-28T06:22:25.025Z,23.40
2023-09-28T06:24:53.283Z,23.40
2023-09-28T06:27:21.671Z,23.40
2023-09-28T06:29:54.281Z,23.40
2023-09-28T06:32:23.662Z,23.40
2023-09-28T06:34:52.248Z,23.40
2023-09-28T06:37:20.588Z,23.40
2023-09-28T06:39:50.148Z,23.40
2023-09-28T06:42:34.631Z,23.40
2023-09-28T06:45:05.389Z,23.40
2023-09-28T06:47:46.378Z,23.40
2023-09-28T06:50:22.103Z,23.40
2023-09-28T06:52:50.633Z,23.40
2023-09-28T06:55:20.285Z,23.40
2023-09-28T06:57:49.885Z,23.40
2023-09-28T07:00:18.954Z,23.40
2023-09-28T07:02:48.780Z,23.40
2023-09-28T07:05:17.930Z,23.40
2023-09-28T07:07:47.687Z,23.40
2023-09-28T07:10:16.318Z,23.40
2023-09-28T07:12:46.149Z,23.40
2023-09-28T07:15:14.617Z,23.40
2023-09-28T07:17:43.691Z,23.40
2023-09-28T07:20:16.522Z,23.40
2023-09-28T07:22:45.101Z,23.40
2023-09-28T07:25:13.621Z,23.50
2023-09-28T07:27:45.128Z,23.50
2023-09-28T07:30:13.903Z,23.50
2023-09-28T07:32:42.459Z,23.50
2023-09-28T07:35:12.561Z,23.50
2023-09-28T07:37:41.411Z,23.50
2023-09-28T07:40:13.561Z,23.50
2023-09-28T07:42:42.708Z,23.60
2023-09-28T07:45:13.993Z,23.60
2023-09-28T07:47:42.691Z,23.60
2023-09-28T07:50:16.126Z,23.60
2023-09-28T07:52:45.086Z,23.60
2023-09-28T07:55:14.706Z,23.70
2023-09-28T08:00:18.770Z,23.70
2023-09-28T08:02:47.283Z,23.70
2023-09-28T08:05:15.715Z,23.70
2023-09-28T08:07:49.576Z,23.80
2023-09-28T08:10:24.961Z,23.70
2023-09-28T08:12:54.398Z,23.80
2023-09-28T08:15:36.066Z,23.80
2023-09-28T08:18:05.671Z,23.90
2023-09-28T08:20:36.011Z,23.90
2023-09-28T08:23:06.008Z,23.90
2023-09-28T08:25:35.489Z,23.90
2023-09-28T08:28:03.859Z,23.90
2023-09-28T08:30:33.641Z,23.90
2023-09-28T08:33:03.140Z,23.90
2023-09-28T08:35:32.038Z,24.00
2023-09-28T08:38:00.892Z,23.90
2023-09-28T08:40:31.682Z,23.90
2023-09-28T08:43:06.589Z,23.90
2023-09-28T08:45:37.233Z,24.00
2023-09-28T08:48:09.693Z,24.00
2023-09-28T08:50:41.353Z,24.00
2023-09-28T08:53:10.897Z,24.00
2023-09-28T08:55:40.357Z,24.00
2023-09-28T08:58:10.110Z,24.00
2023-09-28T09:00:41.515Z,24.00
2023-09-28T09:03:10.553Z,24.00
2023-09-28T09:05:42.694Z,24.00
2023-09-28T09:08:14.157Z,24.00
2023-09-28T09:10:42.808Z,24.00
2023-09-28T09:13:18.110Z,24.10
2023-09-28T09:15:47.924Z,24.10
2023-09-28T09:18:21.157Z,24.00
2023-09-28T09:20:51.146Z,24.10
2023-09-28T09:23:20.235Z,24.10
2023-09-28T09:25:49.601Z,24.10
2023-09-28T09:28:30.819Z,24.10
2023-09-28T09:31:00.644Z,24.00
2023-09-28T09:33:29.978Z,24.10
2023-09-28T09:35:59.216Z,24.00
2023-09-28T09:38:31.861Z,24.00
2023-09-28T09:41:01.255Z,24.00
2023-09-28T09:43:32.562Z,24.00
2023-09-28T09:46:05.246Z,24.00
2023-09-28T09:48:41.301Z,24.00
2023-09-28T09:51:15.770Z,24.10
2023-09-28T09:53:45.393Z,24.00
2023-09-28T09:56:15.320Z,24.10
2023-09-28T09:58:49.005Z,24.00
2023-09-28T10:01:20.580Z,24.00
2023-09-28T10:03:51.837Z,24.10
2023-09-28T10:06:22.335Z,24.10
2023-09-28T10:08:52.162Z,24.10
2023-09-28T10:11:20.958Z,24.10
2023-09-28T10:13:51.486Z,24.10
2023-09-28T10:16:22.481Z,24.10
2023-09-28T10:18:54.560Z,24.10
2023-09-28T10:21:23.630Z,24.10
2023-09-28T10:23:56.904Z,24.10
2023-09-28T10:26:32.370Z,24.10
2023-09-28T10:29:05.344Z,24.10
2023-09-28T10:31:55.402Z,24.10
2023-09-28T10:34:27.714Z,24.10
2023-09-28T10:37:22.617Z,24.10
2023-09-28T10:39:57.471Z,24.10
2023-09-28T10:42:28.251Z,24.20
2023-09-28T10:44:58.277Z,24.10
2023-09-28T10:47:32.448Z,24.10
2023-09-28T10:50:02.072Z,24.10
2023-09-28T10:52:31.928Z,24.10
2023-09-28T10:55:01.088Z,24.10
2023-09-28T10:57:33.578Z,24.10
2023-09-28T11:00:03.459Z,24.10
2023-09-28T11:02:39.142Z,24.10
2023-09-28T11:05:10.465Z,24.10
2023-09-28T11:07:39.782Z,24.10
2023-09-28T11:10:10.169Z,24.10
2023-09-28T11:12:40.647Z,24.10
2023-09-28T11:15:11.213Z,24.10
2023-09-28T11:17:43.351Z,24.10
2023-09-28T11:20:13.365Z,24.10
2023-09-28T11:22:42.041Z,24.10
2023-09-28T11:25:13.746Z,24.10
2023-09-28T11:27:44.901Z,24.00
2023-09-28T11:30:20.749Z,24.00
2023-09-28T11:32:53.013Z,24.00
2023-09-28T11:35:27.956Z,24.00
2023-09-28T11:38:01.202Z,24.00
2023-09-28T11:40:30.228Z,24.00
2023-09-28T11:43:01.073Z,24.00
2023-09-28T11:45:30.872Z,24.00
2023-09-28T11:48:04.229Z,24.00
2023-09-28T11:50:34.265Z,24.00
2023-09-28T11:53:03.506Z,24.10
2023-09-28T11:55:32.517Z,24.10
2023-09-28T11:58:02.250Z,24.10
2023-09-28T12:00:32.217Z,24.10
2023-09-28T12:03:03.992Z,24.10
2023-09-28T12:05:35.094Z,24.10
2023-09-28T12:08:04.334Z,24.20
2023-09-28T12:10:33.285Z,24.20
2023-09-28T12:13:01.959Z,24.20
2023-09-28T12:15:30.764Z,24.20
2023-09-28T12:17:59.740Z,24.30
2023-09-28T12:20:30.834Z,24.30
2023-09-28T12:23:00.577Z,24.30
2023-09-28T12:25:34.541Z,24.30
2023-09-28T12:28:04.206Z,24.30
2023-09-28T12:30:33.156Z,24.40
2023-09-28T12:33:02.689Z,24.40
2023-09-28T12:35:32.600Z,24.40
2023-09-28T12:38:05.046Z,24.40
2023-09-28T12:40:35.042Z,24.40
2023-09-28T12:43:06.447Z,24.40
2023-09-28T12:45:35.484Z,24.40
2023-09-28T12:48:05.363Z,24.40
2023-09-28T12:50:37.823Z,24.40
2023-09-28T12:53:06.711Z,24.40
2023-09-28T12:55:36.078Z,24.40
2023-09-28T12:58:05.495Z,24.40
2023-09-28T13:00:34.606Z,24.40
2023-09-28T13:03:08.319Z,24.40
2023-09-28T13:05:39.246Z,24.40
2023-09-28T13:08:08.618Z,24.40
2023-09-28T13:10:36.926Z,24.40
2023-09-28T13:13:07.485Z,24.40
2023-09-28T13:15:35.959Z,24.40
2023-09-28T13:18:10.034Z,24.40
2023-09-28T13:20:41.382Z,24.40
2023-09-28T13:23:11.328Z,24.40
2023-09-28T13:25:40.601Z,24.40
2023-09-28T13:28:11.126Z,24.40
2023-09-28T13:30:40.880Z,24.40
2023-09-28T13:33:11.040Z,24.40
2023-09-28T13:35:42.057Z,24.40
2023-09-28T13:38:10.954Z,24.40
2023-09-28T13:40:41.361Z,24.40
2023-09-28T13:43:10.558Z,24.40
2023-09-28T13:45:39.051Z,24.40
2023-09-28T13:48:08.662Z,24.40
2023-09-28T13:50:37.201Z,24.40
2023-09-28T13:53:08.350Z,24.40
2023-09-28T13:55:37.738Z,24.40
2023-09-28T13:58:06.945Z,24.40
2023-09-28T14:00:41.504Z,24.40
2023-09-28T14:03:10.576Z,24.40
2023-09-28T14:05:39.664Z,24.40
2023-09-28T14:08:12.704Z,24.40
2023-09-28T14:10:41.095Z,24.30
2023-09-28T14:13:09.262Z,24.40
2023-09-28T14:15:38.591Z,24.30
2023-09-28T14:18:08.390Z,24.30
2023-09-28T14:20:37.689Z,24.30
2023-09-28T14:23:06.492Z,24.30
2023-09-28T14:25:36.222Z,24.30
2023-09-28T14:28:05.145Z,24.30
2023-09-28T14:30:33.532Z,24.30
2023-09-28T14:33:02.973Z,24.30
2023-09-28T14:35:31.684Z,24.30
2023-09-28T14:38:00.039Z,24.30
2023-09-28T14:40:28.340Z,24.30
2023-09-28T14:42:57.910Z,24.30
2023-09-28T14:45:26.222Z,24.30
2023-09-28T14:47:54.557Z,24.30
2023-09-28T14:50:22.929Z,24.30
2023-09-28T14:52:51.400Z,24.30
2023-09-28T14:55:19.856Z,24.30
2023-09-28T14:57:48.086Z,24.30
2023-09-28T15:00:18.219Z,24.30
2023-09-28T15:02:48.030Z,24.30
2023-09-28T15:05:16.414Z,24.30
2023-09-28T15:07:44.613Z,24.30
2023-09-28T15:10:13.554Z,24.20
2023-09-28T15:12:42.140Z,24.20
2023-09-28T15:15:10.730Z,24.20
2023-09-28T15:17:40.649Z,24.20
2023-09-28T15:20:11.255Z,24.20
2023-09-28T15:22:39.602Z,24.20
2023-09-28T15:25:08.254Z,24.10
2023-09-28T15:27:36.940Z,24.10
2023-09-28T15:30:05.864Z,24.10
2023-09-28T15:32:34.298Z,24.10
2023-09-28T15:35:04.354Z,24.10
2023-09-28T15:37:32.719Z,24.00
2023-09-28T15:40:01.001Z,24.00
2023-09-28T15:42:29.296Z,24.00
2023-09-28T15:44:57.601Z,24.00
2023-09-28T15:47:26.290Z,24.00
2023-09-28T15:49:54.651Z,24.00
2023-09-28T15:52:24.355Z,23.90
2023-09-28T15:54:52.581Z,23.90
2023-09-28T15:57:20.894Z,23.90
2023-09-28T15:59:49.274Z,23.80
2023-09-28T16:02:18.330Z,23.80
2023-09-28T16:04:47.036Z,23.80
2023-09-28T16:07:15.557Z,23.80
2023-09-28T16:09:45.344Z,23.80
2023-09-28T16:12:13.680Z,23.70
2023-09-28T16:14:42.001Z,23.70
2023-09-28T16:17:10.405Z,23.70
2023-09-28T16:19:38.776Z,23.70
2023-09-28T16:22:08.256Z,23.70
2023-09-28T16:24:36.495Z,23.70
2023-09-28T16:27:06.163Z,23.60
2023-09-28T16:29:34.562Z,23.60
2023-09-28T16:32:03.490Z,23.60
2023-09-28T16:34:32.527Z,23.60
2023-09-28T16:37:00.952Z,23.60
2023-09-28T16:39:29.330Z,23.60
2023-09-28T16:41:57.773Z,23.50
2023-09-28T16:44:27.526Z,23.50
2023-09-28T16:46:55.786Z,23.50
2023-09-28T16:49:24.049Z,23.50
2023-09-28T16:51:52.307Z,23.50
2023-09-28T16:54:20.785Z,23.50
2023-09-28T16:56:49.131Z,23.50
2023-09-28T16:59:17.435Z,23.40
2023-09-28T17:01:47.284Z,23.50
2023-09-28T17:04:15.715Z,23.40
2023-09-28T17:06:44.033Z,23.40
2023-09-28T17:09:12.409Z,23.40
2023-09-28T17:11:41.202Z,23.40
2023-09-28T17:14:09.844Z,23.40
2023-09-28T17:16:38.234Z,23.40
2023-09-28T17:19:08.194Z,23.40
2023-09-28T17:21:36.848Z,23.40
2023-09-28T17:24:05.497Z,23.40
2023-09-28T17:26:33.875Z,23.30
2023-09-28T17:29:02.203Z,23.40
2023-09-28T17:31:30.480Z,23.30
2023-09-28T17:33:58.756Z,23.30
2023-09-28T17:36:28.398Z,23.30
2023-09-28T17:38:57.437Z,23.30
2023-09-28T17:41:25.722Z,23.30
2023-09-28T17:43:54.011Z,23.30
2023-09-28T17:46:22.391Z,23.30
2023-09-28T17:48:50.629Z,23.30
2023-09-28T17:51:18.963Z,23.30
2023-09-28T17:53:48.545Z,23.30
2023-09-28T17:56:16.855Z,23.30
2023-09-28T17:58:45.131Z,23.30
2023-09-28T18:01:13.325Z,23.30
2023-09-28T18:03:41.654Z,23.30
2023-09-28T18:06:10.143Z,23.30
2023-09-28T18:08:38.423Z,23.30
2023-09-28T18:11:08.382Z,23.30
2023-09-28T18:13:37.515Z,23.30
2023-09-28T18:16:06.544Z,23.30
2023-09-28T18:18:34.795Z,23.30
2023-09-28T18:21:03.031Z,23.30
2023-09-28T18:23:31.399Z,23.30
2023-09-28T18:25:59.753Z,23.30
2023-09-28T18:28:31.193Z,23.30
2023-09-28T18:30:59.532Z,23.30
2023-09-28T18:33:27.835Z,23.30
2023-09-28T18:35:57.342Z,23.30
2023-09-28T18:38:25.833Z,23.30
2023-09-28T18:40:54.299Z,23.30
2023-09-28T18:43:22.464Z,23.30
2023-09-28T18:45:55.956Z,23.30
2023-09-28T18:48:24.823Z,23.30
2023-09-28T18:50:53.962Z,23.30
2023-09-28T18:53:24.458Z,23.30
2023-09-28T18:55:55.068Z,23.30
2023-09-28T18:58:23.301Z,23.20
2023-09-28T19:00:52.763Z,23.20
2023-09-28T19:03:22.888Z,23.20
2023-09-28T19:05:51.246Z,23.20
2023-09-28T19:08:19.615Z,23.20
2023-09-28T19:10:55.945Z,23.20
2023-09-28T19:13:24.265Z,23.20
2023-09-28T19:15:52.551Z,23.20
2023-09-28T19:18:24.355Z,23.20
2023-09-28T19:20:52.648Z,23.20
2023-09-28T19:23:21.151Z,23.20
2023-09-28T19:25:49.806Z,23.20
2023-09-28T19:28:20.285Z,23.20
2023-09-28T19:30:50.230Z,23.20
2023-09-28T19:33:18.787Z,23.20
2023-09-28T19:35:48.541Z,23.20
2023-09-28T19:38:17.514Z,23.20
2023-09-28T19:40:45.987Z,23.20
2023-09-28T19:43:14.515Z,23.20
2023-09-28T19:45:43.171Z,23.20
2023-09-28T19:48:11.779Z,23.20
2023-09-28T19:50:41.773Z,23.20
2023-09-28T19:53:12.511Z,23.20
2023-09-28T19:55:42.095Z,23.20
2023-09-28T19:58:10.492Z,23.20
2023-09-28T20:00:40.510Z,23.20
2023-09-28T20:03:09.132Z,23.20
2023-09-28T20:05:37.759Z,23.20
2023-09-28T20:08:06.500Z,23.20
2023-09-28T20:10:36.276Z,23.20
2023-09-28T20:13:05.488Z,23.20
2023-09-28T20:15:33.851Z,23.20
2023-09-28T20:18:02.273Z,23.20
2023-09-28T20:20:30.598Z,23.10
2023-09-28T20:22:58.919Z,23.10
2023-09-28T20:25:27.189Z,23.10
2023-09-28T20:27:56.907Z,23.10
2023-09-28T20:30:25.268Z,23.10
2023-09-28T20:32:54.108Z,23.10
2023-09-28T20:35:22.490Z,23.10
2023-09-28T20:37:50.749Z,23.10
2023-09-28T20:40:19.088Z,23.10
2023-09-28T20:42:47.338Z,23.10
2023-09-28T20:45:17.231Z,23.10
2023-09-28T20:47:45.688Z,23.10
2023-09-28T20:50:16.030Z,23.10
2023-09-28T20:52:44.535Z,23.10
2023-09-28T20:55:13.002Z,23.10
2023-09-28T20:57:42.192Z,23.10
2023-09-28T21:00:12.616Z,23.10
2023-09-28T21:02:42.719Z,23.10
2023-09-28T21:05:11.731Z,23.10
2023-09-28T21:07:45.102Z,23.10
2023-09-28T21:10:14.400Z,23.10
2023-09-28T21:12:42.647Z,23.10
2023-09-28T21:15:11.687Z,23.00
2023-09-28T21:17:41.713Z,23.10
2023-09-28T21:20:12.370Z,23.00
2023-09-28T21:22:40.639Z,23.00
2023-09-28T21:25:09.865Z,23.00
2023-09-28T21:27:38.627Z,23.00
2023-09-28T21:30:09.857Z,23.00
2023-09-28T21:32:38.678Z,23.00
2023-09-28T21:35:10.818Z,23.00
2023-09-28T21:37:39.298Z,23.00
2023-09-28T21:40:09.367Z,23.00
2023-09-28T21:42:37.650Z,23.00
2023-09-28T21:45:07.030Z,23.00
2023-09-28T21:47:35.726Z,23.00
2023-09-28T21:50:04.635Z,23.00
2023-09-28T21:52:34.291Z,23.00
2023-09-28T21:55:02.577Z,23.00
2023-09-28T21:57:30.865Z,23.00
2023-09-28T21:59:59.042Z,23.00
2023-09-28T22:02:28.238Z,23.00
2023-09-28T22:04:56.625Z,23.00
2023-09-28T22:07:24.922Z,23.00
2023-09-28T22:09:54.935Z,23.00
2023-09-28T22:12:23.195Z,22.90
2023-09-28T22:14:51.477Z,22.90
2023-09-28T22:17:19.746Z,22.90
2023-09-28T22:19:48.017Z,22.90
2023-09-28T22:22:16.283Z,23.00
2023-09-28T22:24:44.490Z,22.90
2023-09-28T22:27:14.095Z,22.90
2023-09-28T22:29:42.428Z,22.90
2023-09-28T22:32:11.375Z,22.90
2023-09-28T22:34:39.598Z,22.90
2023-09-28T22:37:07.936Z,22.90
2023-09-28T22:39:36.214Z,22.90
2023-09-28T22:42:04.524Z,22.90
2023-09-28T22:44:34.214Z,22.90
2023-09-28T22:47:04.326Z,22.90
2023-09-28T22:49:32.668Z,22.90
2023-09-28T22:52:00.949Z,22.90
2023-09-28T22:54:29.164Z,22.90
2023-09-28T22:56:57.494Z,22.90
2023-09-28T22:59:25.883Z,22.90
2023-09-28T23:01:57.349Z,22.90
2023-09-28T23:04:27.928Z,22.90
2023-09-28T23:06:56.913Z,22.90
2023-09-28T23:09:26.496Z,22.90
2023-09-28T23:11:54.877Z,22.90
2023-09-28T23:14:23.461Z,22.90
2023-09-28T23:17:01.339Z,22.90
2023-09-28T23:19:34.892Z,22.90
2023-09-28T23:22:05.125Z,22.80
2023-09-28T23:24:33.589Z,22.90
2023-09-28T23:27:02.127Z,22.90
2023-09-28T23:29:30.835Z,22.90
2023-09-28T23:32:02.377Z,22.90
2023-09-28T23:34:32.830Z,22.90
2023-09-28T23:37:02.856Z,22.90
2023-09-28T23:39:31.220Z,22.80
2023-09-28T23:42:02.134Z,22.90
2023-09-28T23:44:30.711Z,22.80
2023-09-28T23:46:59.094Z,22.80
2023-09-28T23:49:29.920Z,22.90
2023-09-28T23:51:59.610Z,22.80
2023-09-28T23:54:28.528Z,22.90
2023-09-28T23:56:56.843Z,22.80
2023-09-28T23:59:25.367Z,22.80
